Messina, Italy

1:26 AM CEST on September 22, 2014 (GMT +0200)
Messina centro | Change Station
CLOSE
Current Station
Personal Weather Station
Location: Messina, SICILIA
Elevation: 72 ft
Nearby Weather Stations

Elev 72 ft 38.18 °N, 15.56 °E | Updated 1 minute ago

Clear
Clear
77.5 °F
Feels Like 79 °F
N
0.0
Wind Variable Wind from South
Gusts 0.0 mph

Today
High -- | Low -- °F
--% Chance of Precip.
Yesterday
High -- | Low -- °F
Precip. -- in
6:45 AM 6:55 PM
Waning Crescent, 5% visible
Pressure 29.98 in
Visibility -9999.0 miles
Clouds
Heat Index 79 °F
Dew Point 67 °F
Humidity 71%
Rainfall 0.00 in
Snow Depth Not available.
UV Not available.
Pollen Not available.
Air Quality Not available.
Flu Activity Not available.
METAR LICC 212320Z 26006KT CAVOK 24/18 Q1015

More Conditions Fewer Conditions

Pressure 29.98 in
Visibility -9999.0 miles
Clouds
Heat Index 79 °F
Dew Point 67 °F
Humidity 71%
Rainfall 0.00 in
Snow Depth Not available.
UV Not available.
Pollen Not available.
Air Quality Not available.
Flu Activity Not available.
METAR LICC 212320Z 26006KT CAVOK 24/18 Q1015

More Conditions Fewer Conditions

10-Day Weather Forecast

Almanac

Astronomy

Sep. 22, 2014 Rise Set
Actual Time 6:45 AM CEST 6:55 PM CEST
Civil Twilight 6:18 AM CEST 7:21 PM CEST
Nautical Twilight 5:47 AM CEST 7:52 PM CEST
Astronomical Twilight 5:16 AM CEST 8:23 PM CEST
Moon 4:58 AM CEST (9/22) 5:52 PM CEST (9/22)
Length of Visible Light 13h 02m
Length of Day
12h 09m
Tomorrow will be 2m 27s shorter.
Waning Crescent, 5% of the Moon is Illuminated
Sep 21
Waning Crescent
Sep 24
New
Oct 1
First Quarter
Oct 8
Full
Oct 15
Last Quarter

Yesterday's Extremes

Country Highs Country Lows

Community

WunderPhotos

Upload Photos

1,755,292 photos uploaded!

WunderBlogs® & News

Nearby

Snow Depth

Not available.

Earthquake Activity

City Distance Mag. Time & Date
No recent earthquake activity has been reported nearby.
Minimum magnitude displayed is 2.5.

Coastal Water Temperatures

Place Temperature
No Stations Reporting

Nearby Weather Stations